createdAt,value
2023-05-02T00:00:13.503Z,512.00
2023-05-02T00:01:13.535Z,519.00
2023-05-02T00:02:13.635Z,518.00
2023-05-02T00:03:13.806Z,519.00
2023-05-02T00:04:13.812Z,515.00
2023-05-02T00:05:13.734Z,516.00
2023-05-02T00:06:13.848Z,517.00
2023-05-02T00:07:13.830Z,518.00
2023-05-02T00:08:13.902Z,515.00
2023-05-02T00:09:13.948Z,510.00
2023-05-02T00:10:13.995Z,514.00
2023-05-02T00:11:14.052Z,518.00
2023-05-02T00:12:14.088Z,514.00
2023-05-02T00:13:14.150Z,514.00
2023-05-02T00:14:14.219Z,513.00
2023-05-02T00:15:14.296Z,511.00
2023-05-02T00:16:14.325Z,513.00
2023-05-02T00:17:14.437Z,516.00
2023-05-02T00:18:14.484Z,517.00
2023-05-02T00:19:14.474Z,513.00
2023-05-02T00:20:14.531Z,512.00
2023-05-02T00:21:14.592Z,518.00
2023-05-02T00:22:14.649Z,512.00
2023-05-02T00:23:14.714Z,509.00
2023-05-02T00:24:14.763Z,512.00
2023-05-02T00:25:14.814Z,514.00
2023-05-02T00:26:14.874Z,511.00
2023-05-02T00:27:14.932Z,516.00
2023-05-02T00:28:14.996Z,515.00
2023-05-02T00:29:15.049Z,515.00
2023-05-02T00:30:15.114Z,518.00
2023-05-02T00:31:15.201Z,512.00
2023-05-02T00:32:15.219Z,509.00
2023-05-02T00:33:15.415Z,513.00
2023-05-02T00:34:15.339Z,510.00
2023-05-02T00:35:15.397Z,509.00
2023-05-02T00:36:15.455Z,513.00
2023-05-02T00:37:15.508Z,511.00
2023-05-02T00:38:15.562Z,509.00
2023-05-02T00:39:15.618Z,510.00
2023-05-02T00:40:15.683Z,515.00
2023-05-02T00:41:15.724Z,510.00
2023-05-02T00:42:15.777Z,508.00
2023-05-02T00:43:15.834Z,506.00
2023-05-02T00:44:15.882Z,516.00
2023-05-02T00:45:15.934Z,510.00
2023-05-02T00:46:16.059Z,514.00
2023-05-02T00:47:16.064Z,511.00
2023-05-02T00:48:16.173Z,515.00
2023-05-02T00:49:16.146Z,511.00
2023-05-02T00:50:16.221Z,511.00
2023-05-02T00:51:16.259Z,514.00
2023-05-02T00:52:16.308Z,513.00
2023-05-02T00:53:16.361Z,514.00
2023-05-02T00:54:16.417Z,510.00
2023-05-02T00:55:16.482Z,513.00
2023-05-02T00:56:16.547Z,510.00
2023-05-02T00:57:16.598Z,510.00
2023-05-02T00:58:16.657Z,515.00
2023-05-02T00:59:16.723Z,511.00
2023-05-02T01:00:16.787Z,509.00
2023-05-02T01:01:16.949Z,510.00
2023-05-02T01:02:16.948Z,510.00
2023-05-02T01:03:16.999Z,511.00
2023-05-02T01:04:17.050Z,506.00
2023-05-02T01:05:17.099Z,509.00
2023-05-02T01:06:17.167Z,505.00
2023-05-02T01:07:17.195Z,508.00
2023-05-02T01:08:17.256Z,507.00
2023-05-02T01:09:17.323Z,510.00
2023-05-02T01:10:17.374Z,505.00
2023-05-02T01:11:17.427Z,506.00
2023-05-02T01:12:17.489Z,510.00
2023-05-02T01:13:17.613Z,509.00
2023-05-02T01:14:17.617Z,511.00
2023-05-02T01:15:17.677Z,512.00
2023-05-02T01:16:17.788Z,508.00
2023-05-02T01:17:17.774Z,512.00
2023-05-02T01:18:17.827Z,508.00
2023-05-02T01:19:17.887Z,510.00
2023-05-02T01:20:17.948Z,509.00
2023-05-02T01:21:18.028Z,507.00
2023-05-02T01:22:18.079Z,511.00
2023-05-02T01:23:18.128Z,510.00
2023-05-02T01:24:18.194Z,510.00
2023-05-02T01:25:18.261Z,506.00
2023-05-02T01:26:18.315Z,511.00
2023-05-02T01:27:18.376Z,507.00
2023-05-02T01:28:18.429Z,510.00
2023-05-02T01:29:18.489Z,506.00
2023-05-02T01:30:18.540Z,507.00
2023-05-02T01:31:18.648Z,505.00
2023-05-02T01:32:18.650Z,505.00
2023-05-02T01:33:18.710Z,506.00
2023-05-02T01:34:18.761Z,506.00
2023-05-02T01:35:18.814Z,505.00
2023-05-02T01:36:18.869Z,507.00
2023-05-02T01:37:18.939Z,506.00
2023-05-02T01:38:18.985Z,503.00
2023-05-02T01:39:19.034Z,505.00
2023-05-02T01:40:19.080Z,508.00
2023-05-02T01:41:19.124Z,502.00
2023-05-02T01:42:19.173Z,501.00
2023-05-02T01:43:19.226Z,506.00
2023-05-02T01:44:19.282Z,502.00
2023-05-02T01:45:19.318Z,501.00
2023-05-02T01:46:19.407Z,505.00
2023-05-02T01:47:19.423Z,504.00
2023-05-02T01:48:19.477Z,503.00
2023-05-02T01:49:19.526Z,504.00
2023-05-02T01:50:19.554Z,500.00
2023-05-02T01:51:19.620Z,506.00
2023-05-02T01:52:19.645Z,503.00
2023-05-02T01:53:19.695Z,502.00
2023-05-02T01:54:19.736Z,502.00
2023-05-02T01:55:19.787Z,503.00
2023-05-02T01:56:19.825Z,506.00
2023-05-02T01:57:19.874Z,504.00
2023-05-02T01:58:19.911Z,509.00
2023-05-02T01:59:19.956Z,502.00
2023-05-02T02:00:19.986Z,502.00
2023-05-02T02:01:20.113Z,503.00
2023-05-02T02:02:20.076Z,502.00
2023-05-02T02:03:20.170Z,504.00
2023-05-02T02:04:20.287Z,501.00
2023-05-02T02:05:20.186Z,501.00
2023-05-02T02:06:20.267Z,502.00
2023-05-02T02:07:20.270Z,503.00
2023-05-02T02:08:20.313Z,502.00
2023-05-02T02:09:20.350Z,505.00
2023-05-02T02:10:20.381Z,504.00
2023-05-02T02:11:20.421Z,503.00
2023-05-02T02:12:20.459Z,503.00
2023-05-02T02:13:20.488Z,504.00
2023-05-02T02:14:20.523Z,501.00
2023-05-02T02:15:20.557Z,502.00
2023-05-02T02:16:20.640Z,502.00
2023-05-02T02:17:20.611Z,500.00
2023-05-02T02:18:20.642Z,501.00
2023-05-02T02:19:20.679Z,502.00
2023-05-02T02:20:20.715Z,502.00
2023-05-02T02:21:20.741Z,502.00
2023-05-02T02:22:20.765Z,505.00
2023-05-02T02:23:20.811Z,505.00
2023-05-02T02:24:20.833Z,505.00
2023-05-02T02:25:20.868Z,503.00
2023-05-02T02:26:20.907Z,504.00
2023-05-02T02:27:20.924Z,505.00
2023-05-02T02:28:20.957Z,500.00
2023-05-02T02:29:20.976Z,507.00
2023-05-02T02:30:21.007Z,504.00
2023-05-02T02:31:21.156Z,508.00
2023-05-02T02:32:21.057Z,505.00
2023-05-02T02:33:21.092Z,502.00
2023-05-02T02:34:21.117Z,505.00
2023-05-02T02:35:21.152Z,505.00
2023-05-02T02:36:21.178Z,503.00
2023-05-02T02:37:21.201Z,504.00
2023-05-02T02:38:21.234Z,506.00
2023-05-02T02:39:21.270Z,506.00
2023-05-02T02:40:21.296Z,507.00
2023-05-02T02:41:21.341Z,504.00
2023-05-02T02:42:21.349Z,508.00
2023-05-02T02:43:21.395Z,508.00
2023-05-02T02:44:21.404Z,504.00
2023-05-02T02:45:21.436Z,505.00
2023-05-02T02:46:21.495Z,507.00
2023-05-02T02:47:21.488Z,505.00
2023-05-02T02:48:21.526Z,508.00
2023-05-02T02:49:21.556Z,505.00
2023-05-02T02:50:21.604Z,506.00
2023-05-02T02:51:21.617Z,503.00
2023-05-02T02:52:21.646Z,506.00
2023-05-02T02:53:21.671Z,504.00
2023-05-02T02:54:26.934Z,505.00
2023-05-02T02:55:22.722Z,506.00
2023-05-02T02:56:21.719Z,506.00
2023-05-02T02:57:21.729Z,506.00
2023-05-02T02:58:21.732Z,509.00
2023-05-02T02:59:21.734Z,509.00
2023-05-02T03:00:21.739Z,507.00
2023-05-02T03:01:21.777Z,509.00
2023-05-02T03:02:21.750Z,507.00
2023-05-02T03:03:21.840Z,504.00
2023-05-02T03:04:21.929Z,509.00
2023-05-02T03:05:21.764Z,506.00
2023-05-02T03:06:21.815Z,503.00
2023-05-02T03:07:21.787Z,502.00
2023-05-02T03:08:21.832Z,504.00
2023-05-02T03:09:21.799Z,504.00
2023-05-02T03:10:21.810Z,505.00
2023-05-02T03:11:21.816Z,502.00
2023-05-02T03:12:21.822Z,502.00
2023-05-02T03:13:21.842Z,503.00
2023-05-02T03:14:21.841Z,506.00
2023-05-02T03:15:21.842Z,503.00
2023-05-02T03:16:21.906Z,502.00
2023-05-02T03:17:23.314Z,504.00
2023-05-02T03:18:21.885Z,501.00
2023-05-02T03:19:21.903Z,501.00
2023-05-02T03:20:21.932Z,502.00
2023-05-02T03:21:21.965Z,504.00
2023-05-02T03:22:21.971Z,505.00
2023-05-02T03:23:21.997Z,503.00
2023-05-02T03:24:22.034Z,503.00
2023-05-02T03:25:22.059Z,501.00
2023-05-02T03:26:22.088Z,504.00
2023-05-02T03:27:22.114Z,505.00
2023-05-02T03:28:22.134Z,501.00
2023-05-02T03:29:22.149Z,504.00
2023-05-02T03:30:22.186Z,504.00
2023-05-02T03:31:24.006Z,502.00
2023-05-02T03:32:22.303Z,509.00
2023-05-02T03:33:22.228Z,505.00
2023-05-02T03:34:22.243Z,501.00
2023-05-02T03:35:22.204Z,505.00
2023-05-02T03:36:22.206Z,501.00
2023-05-02T03:37:22.198Z,503.00
2023-05-02T03:38:22.207Z,505.00
2023-05-02T03:39:22.214Z,505.00
2023-05-02T03:40:22.235Z,501.00
2023-05-02T03:41:22.253Z,502.00
2023-05-02T03:42:22.241Z,503.00
2023-05-02T03:43:22.257Z,500.00
2023-05-02T03:44:22.288Z,503.00
2023-05-02T03:45:22.293Z,506.00
2023-05-02T03:46:22.362Z,504.00
2023-05-02T03:47:22.372Z,506.00
2023-05-02T03:48:22.316Z,507.00
2023-05-02T03:49:22.327Z,504.00
2023-05-02T03:50:22.334Z,502.00
2023-05-02T03:51:22.334Z,506.00
2023-05-02T03:52:22.353Z,504.00
2023-05-02T03:53:22.333Z,508.00
2023-05-02T03:54:22.348Z,504.00
2023-05-02T03:55:22.358Z,504.00
2023-05-02T03:56:22.371Z,507.00
2023-05-02T03:57:22.390Z,507.00
2023-05-02T03:58:22.396Z,504.00
2023-05-02T03:59:22.386Z,507.00
2023-05-02T04:00:22.391Z,504.00
2023-05-02T04:01:22.421Z,504.00
2023-05-02T04:02:22.503Z,504.00
2023-05-02T04:03:22.435Z,507.00
2023-05-02T04:04:22.526Z,504.00
2023-05-02T04:05:22.433Z,501.00
2023-05-02T04:06:22.458Z,506.00
2023-05-02T04:07:22.430Z,502.00
2023-05-02T04:08:22.418Z,504.00
2023-05-02T04:09:22.452Z,503.00
2023-05-02T04:10:22.427Z,505.00
2023-05-02T04:11:22.431Z,507.00
2023-05-02T04:12:22.428Z,504.00
2023-05-02T04:13:22.428Z,504.00
2023-05-02T04:14:22.432Z,508.00
2023-05-02T04:15:22.418Z,501.00
2023-05-02T04:16:22.487Z,502.00
2023-05-02T04:17:22.429Z,503.00
2023-05-02T04:18:22.424Z,506.00
2023-05-02T04:19:22.424Z,500.00
2023-05-02T04:20:22.431Z,505.00
2023-05-02T04:21:22.465Z,503.00
2023-05-02T04:22:22.449Z,501.00
2023-05-02T04:23:22.446Z,503.00
2023-05-02T04:24:22.447Z,503.00
2023-05-02T04:25:22.459Z,503.00
2023-05-02T04:26:22.457Z,505.00
2023-05-02T04:27:22.466Z,505.00
2023-05-02T04:28:22.473Z,509.00
2023-05-02T04:29:22.469Z,503.00
2023-05-02T04:30:22.470Z,506.00
2023-05-02T04:31:22.536Z,504.00
2023-05-02T04:32:22.484Z,504.00
2023-05-02T04:33:22.485Z,502.00
2023-05-02T04:34:22.492Z,504.00
2023-05-02T04:35:22.487Z,502.00
2023-05-02T04:36:22.491Z,504.00
2023-05-02T04:37:22.485Z,504.00
2023-05-02T04:38:22.483Z,503.00
2023-05-02T04:39:22.490Z,500.00
2023-05-02T04:40:22.500Z,504.00
2023-05-02T04:41:22.502Z,503.00
2023-05-02T04:42:22.508Z,505.00
2023-05-02T04:43:24.581Z,507.00
2023-05-02T04:44:22.517Z,505.00
2023-05-02T04:45:22.512Z,507.00
2023-05-02T04:46:22.580Z,505.00
2023-05-02T04:47:22.569Z,505.00
2023-05-02T04:48:22.537Z,504.00
2023-05-02T04:49:22.553Z,504.00
2023-05-02T04:50:22.557Z,504.00
2023-05-02T04:51:22.593Z,503.00
2023-05-02T04:52:22.622Z,503.00
2023-05-02T04:53:22.595Z,504.00
2023-05-02T04:54:22.631Z,505.00
2023-05-02T04:55:22.654Z,506.00
2023-05-02T04:56:22.685Z,504.00
2023-05-02T04:57:23.406Z,505.00
2023-05-02T04:58:22.695Z,501.00
2023-05-02T04:59:22.734Z,504.00
2023-05-02T05:00:22.752Z,503.00
2023-05-02T05:01:22.799Z,503.00
2023-05-02T05:02:22.828Z,504.00
2023-05-02T05:03:22.981Z,502.00
2023-05-02T05:04:22.926Z,505.00
2023-05-02T05:05:22.877Z,502.00
2023-05-02T05:06:22.950Z,503.00
2023-05-02T05:07:22.880Z,502.00
2023-05-02T05:08:22.919Z,506.00
2023-05-02T05:09:22.913Z,503.00
2023-05-02T05:10:22.938Z,503.00
2023-05-02T05:11:22.945Z,503.00
2023-05-02T05:12:22.964Z,502.00
2023-05-02T05:13:22.969Z,501.00
2023-05-02T05:14:22.988Z,503.00
2023-05-02T05:15:22.994Z,505.00
2023-05-02T05:16:23.025Z,503.00
2023-05-02T05:17:23.092Z,507.00
2023-05-02T05:18:23.061Z,500.00
2023-05-02T05:19:23.122Z,502.00
2023-05-02T05:20:23.170Z,500.00
2023-05-02T05:21:23.261Z,500.00
2023-05-02T05:22:23.343Z,502.00
2023-05-02T05:23:23.369Z,508.00
2023-05-02T05:24:23.437Z,520.00
2023-05-02T05:25:23.480Z,552.00
2023-05-02T05:26:23.533Z,535.00
2023-05-02T05:27:23.596Z,520.00
2023-05-02T05:28:23.671Z,537.00
2023-05-02T05:29:23.762Z,533.00
2023-05-02T05:30:23.819Z,533.00
2023-05-02T05:31:23.950Z,535.00
2023-05-02T05:32:24.023Z,526.00
2023-05-02T05:33:24.149Z,567.00
2023-05-02T05:34:24.123Z,547.00
2023-05-02T05:35:24.160Z,531.00
2023-05-02T05:36:24.200Z,543.00
2023-05-02T05:37:24.262Z,586.00
2023-05-02T05:38:24.354Z,617.00
2023-05-02T05:39:24.440Z,636.00
2023-05-02T05:40:24.516Z,699.00
2023-05-02T05:41:24.607Z,762.00
2023-05-02T05:42:24.675Z,785.00
2023-05-02T05:43:24.713Z,872.00
2023-05-02T05:44:24.760Z,979.00
2023-05-02T05:45:24.784Z,1008.00
2023-05-02T05:46:24.890Z,1027.00
2023-05-02T05:47:24.968Z,1047.00
2023-05-02T05:48:24.918Z,1093.00
2023-05-02T05:49:24.837Z,1132.00
2023-05-02T05:50:24.842Z,1152.00
2023-05-02T05:51:24.933Z,1181.00
2023-05-02T05:52:24.876Z,1233.00
2023-05-02T05:53:24.930Z,1286.00
2023-05-02T05:54:24.985Z,1327.00
2023-05-02T05:55:25.061Z,1382.00
2023-05-02T05:56:25.105Z,1415.00
2023-05-02T05:57:25.144Z,1435.00
2023-05-02T05:58:25.200Z,1492.00
2023-05-02T05:59:25.261Z,1490.00
2023-05-02T06:00:25.308Z,1519.00
2023-05-02T06:01:26.033Z,1527.00
2023-05-02T06:02:25.456Z,1548.00
2023-05-02T06:03:25.527Z,1587.00
2023-05-02T06:04:25.561Z,1625.00
2023-05-02T06:05:25.545Z,1668.00
2023-05-02T06:06:25.641Z,1692.00
2023-05-02T06:07:25.643Z,1743.00
2023-05-02T06:08:25.647Z,1770.00
2023-05-02T06:09:25.675Z,1765.00
2023-05-02T06:10:25.706Z,1822.00
2023-05-02T06:11:25.735Z,1858.00
2023-05-02T06:12:25.764Z,1884.00
2023-05-02T06:13:25.796Z,1878.00
2023-05-02T06:14:25.808Z,1916.00
2023-05-02T06:15:25.842Z,1958.00
2023-05-02T06:16:25.959Z,2017.00
2023-05-02T06:17:25.898Z,2047.00
2023-05-02T06:18:25.909Z,2051.00
2023-05-02T06:19:25.961Z,2052.00
2023-05-02T06:20:25.958Z,2065.00
2023-05-02T06:21:25.980Z,2100.00
2023-05-02T06:22:26.031Z,2061.00
2023-05-02T06:23:26.018Z,2068.00
2023-05-02T06:24:26.048Z,2060.00
2023-05-02T06:25:26.077Z,1725.00
2023-05-02T06:26:26.146Z,1320.00
2023-05-02T06:27:26.213Z,1051.00
2023-05-02T06:28:26.197Z,877.00
2023-05-02T06:29:26.287Z,762.00
2023-05-02T06:30:26.357Z,688.00
2023-05-02T06:31:26.462Z,632.00
2023-05-02T06:32:26.458Z,593.00
2023-05-02T06:33:26.508Z,579.00
2023-05-02T06:34:26.578Z,551.00
2023-05-02T06:35:26.661Z,531.00
2023-05-02T06:36:26.754Z,500.00
2023-05-02T06:37:26.849Z,500.00
2023-05-02T06:38:26.936Z,500.00
2023-05-02T06:39:27.029Z,506.00
2023-05-02T06:40:28.049Z,503.00
2023-05-02T06:41:27.214Z,502.00
2023-05-02T06:42:27.311Z,501.00
2023-05-02T06:43:27.418Z,500.00
2023-05-02T06:44:27.543Z,502.00
2023-05-02T06:45:27.644Z,500.00
2023-05-02T06:46:27.815Z,499.00
2023-05-02T06:47:27.889Z,510.00
2023-05-02T06:48:27.981Z,521.00
2023-05-02T06:49:28.081Z,521.00
2023-05-02T06:50:28.175Z,518.00
2023-05-02T06:51:28.298Z,525.00
2023-05-02T06:52:28.372Z,527.00
2023-05-02T06:53:28.847Z,531.00
2023-05-02T06:54:28.546Z,535.00
2023-05-02T06:55:28.651Z,529.00
2023-05-02T06:56:28.749Z,519.00
2023-05-02T06:57:28.838Z,526.00
2023-05-02T06:58:28.979Z,530.00
2023-05-02T06:59:28.990Z,518.00
2023-05-02T07:00:29.076Z,503.00
2023-05-02T07:01:29.158Z,499.00
2023-05-02T07:02:29.180Z,506.00
2023-05-02T07:03:29.321Z,500.00
2023-05-02T07:04:29.387Z,500.00
2023-05-02T07:05:29.372Z,505.00
2023-05-02T07:06:29.412Z,511.00
2023-05-02T07:07:29.483Z,515.00
2023-05-02T07:08:29.583Z,522.00
2023-05-02T07:09:29.667Z,530.00
2023-05-02T07:10:29.725Z,527.00
2023-05-02T07:11:29.781Z,531.00
2023-05-02T07:12:29.837Z,546.00
2023-05-02T07:13:29.897Z,548.00
2023-05-02T07:14:29.941Z,563.00
2023-05-02T07:15:30.027Z,561.00
2023-05-02T07:16:30.102Z,569.00
2023-05-02T07:17:30.135Z,570.00
2023-05-02T07:18:30.216Z,617.00
2023-05-02T07:19:30.236Z,641.00
2023-05-02T07:20:30.349Z,650.00
2023-05-02T07:21:30.430Z,693.00
2023-05-02T07:22:30.508Z,744.00
2023-05-02T07:23:30.571Z,785.00
2023-05-02T07:24:31.576Z,801.00
2023-05-02T07:25:30.661Z,680.00
2023-05-02T07:26:30.867Z,639.00
2023-05-02T07:27:30.772Z,620.00
2023-05-02T07:28:30.800Z,602.00
2023-05-02T07:29:30.873Z,603.00
2023-05-02T07:30:30.972Z,591.00
2023-05-02T07:31:31.505Z,582.00
2023-05-02T07:32:31.356Z,573.00
2023-05-02T07:33:31.151Z,578.00
2023-05-02T07:34:31.239Z,582.00
2023-05-02T07:35:31.312Z,596.00
2023-05-02T07:36:31.380Z,614.00
2023-05-02T07:37:33.639Z,626.00
2023-05-02T07:38:31.468Z,647.00
2023-05-02T07:39:31.479Z,692.00
2023-05-02T07:40:31.489Z,746.00
2023-05-02T07:41:31.507Z,787.00
2023-05-02T07:42:31.532Z,821.00
2023-05-02T07:43:31.531Z,845.00
2023-05-02T07:44:31.541Z,930.00
2023-05-02T07:45:31.550Z,950.00
2023-05-02T07:46:31.638Z,970.00
2023-05-02T07:47:31.579Z,978.00
2023-05-02T07:48:31.572Z,987.00
2023-05-02T07:49:31.581Z,1099.00
2023-05-02T07:50:31.581Z,1117.00
2023-05-02T07:51:31.577Z,1166.00
2023-05-02T07:52:31.596Z,1181.00
2023-05-02T07:53:31.586Z,1249.00
2023-05-02T07:54:31.593Z,1242.00
2023-05-02T07:55:31.588Z,1268.00
2023-05-02T07:56:31.578Z,1255.00
2023-05-02T07:57:31.579Z,991.00
2023-05-02T07:58:31.591Z,808.00
2023-05-02T07:59:31.598Z,706.00
2023-05-02T08:00:31.600Z,643.00
2023-05-02T08:01:31.621Z,649.00
2023-05-02T08:02:31.741Z,633.00
2023-05-02T08:03:31.754Z,616.00
2023-05-02T08:04:31.706Z,589.00
2023-05-02T08:05:31.681Z,552.00
2023-05-02T08:06:31.784Z,535.00
2023-05-02T08:07:31.722Z,526.00
2023-05-02T08:08:31.755Z,537.00
2023-05-02T08:09:31.766Z,548.00
2023-05-02T08:10:31.793Z,548.00
2023-05-02T08:11:31.815Z,577.00
2023-05-02T08:12:31.839Z,579.00
2023-05-02T08:13:31.851Z,593.00
2023-05-02T08:14:31.881Z,595.00
2023-05-02T08:15:31.891Z,652.00
2023-05-02T08:16:32.010Z,659.00
2023-05-02T08:17:31.944Z,635.00
2023-05-02T08:18:31.924Z,656.00
2023-05-02T08:19:31.936Z,668.00
2023-05-02T08:20:31.957Z,752.00
2023-05-02T08:21:31.972Z,833.00
2023-05-02T08:22:31.974Z,855.00
2023-05-02T08:23:31.996Z,915.00
2023-05-02T08:24:31.981Z,1007.00
2023-05-02T08:25:32.513Z,1111.00
2023-05-02T08:26:32.510Z,1138.00
2023-05-02T08:27:32.018Z,1153.00
2023-05-02T08:28:32.015Z,1190.00
2023-05-02T08:29:32.036Z,1223.00
2023-05-02T08:30:32.019Z,1269.00
2023-05-02T08:31:32.076Z,1291.00
2023-05-02T08:32:32.101Z,1317.00
2023-05-02T08:33:32.027Z,1357.00
2023-05-02T08:34:32.034Z,1416.00
2023-05-02T08:35:32.027Z,1461.00
2023-05-02T08:36:32.022Z,1479.00
2023-05-02T08:37:32.043Z,1504.00
2023-05-02T08:38:32.006Z,1573.00
2023-05-02T08:39:31.993Z,1596.00
2023-05-02T08:40:41.487Z,1640.00
2023-05-02T08:41:32.988Z,1642.00
2023-05-02T08:42:31.987Z,1647.00
2023-05-02T08:43:31.977Z,1660.00
2023-05-02T08:44:31.966Z,1684.00
2023-05-02T08:45:31.969Z,1720.00
2023-05-02T08:46:31.967Z,1750.00
2023-05-02T08:47:31.956Z,1741.00
2023-05-02T08:48:31.921Z,1807.00
2023-05-02T08:49:31.952Z,1831.00
2023-05-02T08:50:32.701Z,1873.00
2023-05-02T08:51:32.052Z,1867.00
2023-05-02T08:52:32.095Z,1880.00
2023-05-02T08:53:32.149Z,1881.00
2023-05-02T08:54:33.026Z,1937.00
2023-05-02T08:55:32.253Z,1986.00
2023-05-02T08:56:32.296Z,1972.00
2023-05-02T08:57:32.342Z,2008.00
2023-05-02T08:58:32.388Z,2041.00
2023-05-02T08:59:32.452Z,2095.00
2023-05-02T09:00:32.497Z,2105.00
2023-05-02T09:01:32.536Z,2135.00
2023-05-02T09:02:32.589Z,2123.00
2023-05-02T09:03:32.634Z,2121.00
2023-05-02T09:04:32.670Z,2176.00
2023-05-02T09:05:32.703Z,2170.00
2023-05-02T09:06:32.813Z,2204.00
2023-05-02T09:07:32.782Z,2243.00
2023-05-02T09:08:32.820Z,2261.00
2023-05-02T09:09:32.857Z,2243.00
2023-05-02T09:10:32.882Z,2252.00
2023-05-02T09:11:32.910Z,2274.00
2023-05-02T09:12:32.952Z,2339.00
2023-05-02T09:13:32.995Z,2339.00
2023-05-02T09:14:33.006Z,2370.00
2023-05-02T09:15:33.046Z,2361.00
2023-05-02T09:16:33.137Z,2372.00
2023-05-02T09:17:33.105Z,2367.00
2023-05-02T09:18:33.118Z,2386.00
2023-05-02T09:19:33.158Z,2435.00
2023-05-02T09:20:33.174Z,2459.00
2023-05-02T09:21:33.198Z,2447.00
2023-05-02T09:22:33.222Z,2456.00
2023-05-02T09:23:33.240Z,2488.00
2023-05-02T09:24:33.254Z,2529.00
2023-05-02T09:25:33.273Z,2539.00
2023-05-02T09:26:33.360Z,2531.00
2023-05-02T09:27:33.327Z,2575.00
2023-05-02T09:28:33.356Z,2553.00
2023-05-02T09:29:33.379Z,2573.00
2023-05-02T09:30:33.444Z,2577.00
2023-05-02T09:31:54.372Z,2620.00
2023-05-02T09:32:34.443Z,2622.00
2023-05-02T09:33:33.377Z,2621.00
2023-05-02T09:34:33.354Z,2630.00
2023-05-02T09:35:33.341Z,2647.00
2023-05-02T09:36:33.329Z,2667.00
2023-05-02T09:37:33.307Z,2702.00
2023-05-02T09:38:33.284Z,2687.00
2023-05-02T09:39:33.295Z,2706.00
2023-05-02T09:40:33.252Z,2717.00
2023-05-02T09:41:33.507Z,2731.00
2023-05-02T09:42:33.221Z,2784.00
2023-05-02T09:43:33.203Z,2788.00
2023-05-02T09:44:33.575Z,2812.00
2023-05-02T09:45:33.164Z,2815.00
2023-05-02T09:46:33.249Z,2811.00
2023-05-02T09:47:33.141Z,2851.00
2023-05-02T09:48:33.116Z,2860.00
2023-05-02T09:49:33.133Z,2869.00
2023-05-02T09:50:34.301Z,2889.00
2023-05-02T09:51:33.149Z,2902.00
2023-05-02T09:52:33.159Z,2931.00
2023-05-02T09:53:33.166Z,2945.00
2023-05-02T09:54:33.189Z,2946.00
2023-05-02T09:55:33.179Z,2965.00
2023-05-02T09:56:33.195Z,2982.00
2023-05-02T09:57:33.202Z,2973.00
2023-05-02T09:58:33.221Z,3017.00
2023-05-02T09:59:33.220Z,3028.00
2023-05-02T10:00:33.226Z,3019.00
2023-05-02T10:01:33.249Z,3007.00
2023-05-02T10:02:33.285Z,3036.00
2023-05-02T10:03:33.267Z,3034.00
2023-05-02T10:04:33.389Z,3044.00
2023-05-02T10:05:33.316Z,3056.00
2023-05-02T10:06:33.346Z,3040.00
2023-05-02T10:07:33.349Z,3054.00
2023-05-02T10:08:33.333Z,3083.00
2023-05-02T10:09:33.346Z,2982.00
2023-05-02T10:10:33.384Z,3016.00
2023-05-02T10:11:33.403Z,3025.00
2023-05-02T10:12:33.445Z,3009.00
2023-05-02T10:13:33.456Z,3016.00
2023-05-02T10:14:33.489Z,2990.00
2023-05-02T10:15:33.573Z,2983.00
2023-05-02T10:16:33.591Z,2998.00
2023-05-02T10:17:33.637Z,2977.00
2023-05-02T10:18:33.645Z,2980.00
2023-05-02T10:19:33.687Z,2967.00
2023-05-02T10:20:33.753Z,2969.00
2023-05-02T10:21:33.707Z,2951.00
2023-05-02T10:22:33.741Z,2946.00
2023-05-02T10:23:33.781Z,2931.00
2023-05-02T10:24:33.836Z,2941.00
2023-05-02T10:25:33.852Z,2924.00
2023-05-02T10:26:33.917Z,2899.00
2023-05-02T10:27:33.959Z,2899.00
2023-05-02T10:28:33.993Z,2903.00
2023-05-02T10:29:34.029Z,2891.00
2023-05-02T10:30:34.075Z,2881.00
2023-05-02T10:31:34.200Z,2863.00
2023-05-02T10:32:34.236Z,2864.00
2023-05-02T10:33:34.220Z,2837.00
2023-05-02T10:34:34.268Z,2848.00
2023-05-02T10:35:34.307Z,2842.00
2023-05-02T10:36:34.366Z,2834.00
2023-05-02T10:37:34.410Z,2831.00
2023-05-02T10:38:34.464Z,2825.00
2023-05-02T10:39:34.530Z,2816.00
2023-05-02T10:40:34.580Z,2809.00
2023-05-02T10:41:34.634Z,2810.00
2023-05-02T10:42:34.690Z,2801.00
2023-05-02T10:43:34.734Z,2792.00
2023-05-02T10:44:34.821Z,2778.00
2023-05-02T10:45:34.851Z,2776.00
2023-05-02T10:46:34.966Z,2779.00
2023-05-02T10:47:34.996Z,2764.00
2023-05-02T10:48:35.012Z,2747.00
2023-05-02T10:49:35.065Z,2750.00
2023-05-02T10:50:35.129Z,2739.00
2023-05-02T10:51:35.183Z,2736.00
2023-05-02T10:52:35.234Z,2710.00
2023-05-02T10:53:35.298Z,2710.00
2023-05-02T10:54:35.347Z,2714.00
2023-05-02T10:55:35.401Z,2701.00
2023-05-02T10:56:35.463Z,2684.00
2023-05-02T10:57:35.528Z,2680.00
2023-05-02T10:58:35.690Z,2684.00
2023-05-02T10:59:35.629Z,2674.00
2023-05-02T11:00:35.735Z,2658.00
2023-05-02T11:01:35.729Z,2652.00
2023-05-02T11:02:35.884Z,2651.00
2023-05-02T11:03:35.921Z,2641.00
2023-05-02T11:04:35.933Z,2628.00
2023-05-02T11:05:35.966Z,2617.00
2023-05-02T11:06:36.127Z,2621.00
2023-05-02T11:07:36.080Z,2614.00
2023-05-02T11:08:36.150Z,2610.00
2023-05-02T11:09:36.219Z,2602.00
2023-05-02T11:10:36.250Z,2591.00
2023-05-02T11:11:36.304Z,2586.00
2023-05-02T11:12:36.388Z,2568.00
2023-05-02T11:13:36.437Z,2569.00
2023-05-02T11:14:36.489Z,2561.00
2023-05-02T11:15:36.636Z,2554.00
2023-05-02T11:16:36.641Z,2538.00
2023-05-02T11:17:36.673Z,2534.00
2023-05-02T11:18:36.713Z,2521.00
2023-05-02T11:19:37.650Z,2520.00
2023-05-02T11:20:36.827Z,2514.00
2023-05-02T11:21:36.897Z,2498.00
2023-05-02T11:22:36.951Z,2499.00
2023-05-02T11:23:37.078Z,2496.00
2023-05-02T11:24:37.078Z,2471.00
2023-05-02T11:25:38.601Z,2480.00
2023-05-02T11:26:37.201Z,2455.00
2023-05-02T11:27:37.256Z,2461.00
2023-05-02T11:28:37.382Z,2443.00
2023-05-02T11:29:37.383Z,2442.00
2023-05-02T11:30:37.455Z,2427.00
2023-05-02T11:31:37.555Z,2416.00
2023-05-02T11:32:37.674Z,2404.00
2023-05-02T11:33:37.575Z,2405.00
2023-05-02T11:34:37.626Z,2406.00
2023-05-02T11:35:37.675Z,2398.00
2023-05-02T11:36:37.709Z,2388.00
2023-05-02T11:37:37.728Z,2392.00
2023-05-02T11:38:37.761Z,2372.00
2023-05-02T11:39:37.816Z,2372.00
2023-05-02T11:40:37.826Z,2367.00
2023-05-02T11:41:37.816Z,2357.00
2023-05-02T11:42:37.806Z,2355.00
2023-05-02T11:43:37.829Z,2353.00
2023-05-02T11:44:37.853Z,2345.00
2023-05-02T11:45:37.868Z,2350.00
2023-05-02T11:46:38.006Z,2333.00
2023-05-02T11:47:37.910Z,2337.00
2023-05-02T11:48:37.905Z,2326.00
2023-05-02T11:49:37.910Z,2322.00
2023-05-02T11:50:40.054Z,2318.00
2023-05-02T11:51:37.938Z,2315.00
2023-05-02T11:52:37.932Z,2312.00
2023-05-02T11:53:37.942Z,2305.00
2023-05-02T11:54:37.950Z,2299.00
2023-05-02T11:55:37.968Z,2298.00
2023-05-02T11:56:37.959Z,2297.00
2023-05-02T11:57:37.967Z,2297.00
2023-05-02T11:58:37.977Z,2288.00
2023-05-02T11:59:37.958Z,2277.00
2023-05-02T12:00:37.967Z,2275.00
2023-05-02T12:01:37.975Z,2266.00
2023-05-02T12:02:38.747Z,2255.00
2023-05-02T12:03:38.202Z,2253.00
2023-05-02T12:04:38.018Z,2245.00
2023-05-02T12:05:38.048Z,2243.00
2023-05-02T12:06:38.100Z,2236.00
2023-05-02T12:07:38.019Z,2230.00
2023-05-02T12:08:38.029Z,2220.00
2023-05-02T12:09:38.054Z,2221.00
2023-05-02T12:10:38.125Z,2211.00
2023-05-02T12:11:38.138Z,2217.00
2023-05-02T12:12:38.128Z,2206.00
2023-05-02T12:13:38.166Z,2199.00
2023-05-02T12:14:38.159Z,2195.00
2023-05-02T12:15:38.195Z,2189.00
2023-05-02T12:16:38.317Z,2186.00
2023-05-02T12:17:38.243Z,2178.00
2023-05-02T12:18:38.215Z,2181.00
2023-05-02T12:19:38.230Z,2173.00